createdAt,value
2018-09-08T00:00:34.212Z,0
2018-09-08T00:01:34.511Z,0
2018-09-08T00:02:34.504Z,0
2018-09-08T00:03:34.560Z,0
2018-09-08T00:04:34.209Z,0
2018-09-08T00:05:34.689Z,0
2018-09-08T00:06:34.458Z,0
2018-09-08T00:07:34.226Z,0
2018-09-08T00:08:34.840Z,0
2018-09-08T00:09:34.212Z,0
2018-09-08T00:10:34.217Z,0
2018-09-08T00:11:34.224Z,0
2018-09-08T00:12:34.272Z,0
2018-09-08T00:13:34.262Z,0
2018-09-08T00:14:34.269Z,0
2018-09-08T00:15:34.245Z,0
2018-09-08T00:16:34.262Z,0
2018-09-08T00:17:35.655Z,0
2018-09-08T00:18:34.262Z,0
2018-09-08T00:19:34.233Z,0
2018-09-08T00:20:34.309Z,0
2018-09-08T00:21:34.281Z,0
2018-09-08T00:22:34.291Z,0
2018-09-08T00:23:34.568Z,0
2018-09-08T00:24:34.270Z,0
2018-09-08T00:25:34.328Z,0
2018-09-08T00:26:34.280Z,0
2018-09-08T00:27:34.250Z,0
2018-09-08T00:28:34.576Z,0
2018-09-08T00:29:34.709Z,0
2018-09-08T00:30:34.237Z,0
2018-09-08T00:31:34.258Z,0
2018-09-08T00:32:34.276Z,0
2018-09-08T00:33:34.290Z,0
2018-09-08T00:34:34.313Z,0
2018-09-08T00:35:34.647Z,0
2018-09-08T00:51:37.637Z,0
2018-09-08T00:51:50.597Z,0
2018-09-08T01:03:34.411Z,0
2018-09-08T01:03:47.059Z,0
2018-09-08T01:04:46.902Z,0
2018-09-08T01:05:46.879Z,0
2018-09-08T01:06:46.909Z,0
2018-09-08T01:07:46.885Z,0
2018-09-08T01:08:47.166Z,0
2018-09-08T01:09:46.921Z,0
2018-09-08T01:10:46.896Z,0
2018-09-08T01:11:46.896Z,0
2018-09-08T01:12:46.891Z,0
2018-09-08T01:13:47.064Z,0
2018-09-08T01:14:47.305Z,0
2018-09-08T01:15:46.931Z,0
2018-09-08T01:16:46.913Z,0
2018-09-08T01:17:46.935Z,0
2018-09-08T01:18:46.947Z,0
2018-09-08T01:19:46.931Z,0
2018-09-08T01:20:47.466Z,0
2018-09-08T01:21:47.002Z,0
2018-09-08T01:22:47.045Z,0
2018-09-08T01:23:46.920Z,0
2018-09-08T01:24:46.950Z,0
2018-09-08T01:25:46.997Z,0
2018-09-08T01:26:47.269Z,0
2018-09-08T01:27:46.939Z,0
2018-09-08T01:28:46.944Z,0
2018-09-08T01:29:47.002Z,0
2018-09-08T01:30:47.000Z,0
2018-09-08T01:31:47.015Z,0
2018-09-08T01:32:47.615Z,0
2018-09-08T01:33:47.303Z,0
2018-09-08T01:34:47.229Z,0
2018-09-08T01:35:46.963Z,0
2018-09-08T01:36:46.958Z,0
2018-09-08T01:37:46.976Z,0
2018-09-08T01:38:47.463Z,0
2018-09-08T01:39:46.959Z,0
2018-09-08T01:40:47.023Z,0
2018-09-08T01:41:46.975Z,0
2018-09-08T01:42:47.007Z,0
2018-09-08T01:43:47.173Z,0
2018-09-08T01:44:48.319Z,0
2018-09-08T01:45:46.980Z,0
2018-09-08T01:46:47.028Z,0
2018-09-08T01:47:46.943Z,0
2018-09-08T01:48:47.276Z,0
2018-09-08T01:49:46.979Z,0
2018-09-08T01:50:47.327Z,0
2018-09-08T01:51:46.936Z,0
2018-09-08T01:52:47.064Z,0
2018-09-08T01:53:46.933Z,0
2018-09-08T01:54:47.154Z,0
2018-09-08T01:55:46.962Z,0
2018-09-08T01:56:47.464Z,0
2018-09-08T01:57:47.025Z,0
2018-09-08T01:58:47.010Z,0
2018-09-08T01:59:47.011Z,0
2018-09-08T02:00:47.017Z,0
2018-09-08T02:01:47.235Z,0
2018-09-08T02:02:47.315Z,0
2018-09-08T02:03:47.004Z,0
2018-09-08T02:04:47.046Z,0
2018-09-08T02:05:47.019Z,0
2018-09-08T02:06:47.053Z,0
2018-09-08T02:07:47.006Z,0
2018-09-08T02:08:47.293Z,0
2018-09-08T02:09:46.984Z,0
2018-09-08T02:10:47.017Z,0
2018-09-08T02:11:46.987Z,0
2018-09-08T02:12:46.964Z,0
2018-09-08T02:13:47.135Z,0
2018-09-08T02:14:47.516Z,0
2018-09-08T02:15:47.045Z,0
2018-09-08T02:16:47.080Z,0
2018-09-08T02:17:47.107Z,0
2018-09-08T02:18:47.442Z,0
2018-09-08T02:19:47.223Z,0
2018-09-08T02:20:47.354Z,0
2018-09-08T02:21:47.031Z,0
2018-09-08T02:22:47.164Z,0
2018-09-08T02:23:47.144Z,0
2018-09-08T02:24:47.170Z,0
2018-09-08T02:25:47.491Z,0
2018-09-08T02:26:47.477Z,0
2018-09-08T02:27:47.234Z,0
2018-09-08T02:28:47.265Z,0
2018-09-08T02:29:47.172Z,0
2018-09-08T02:30:47.218Z,0
2018-09-08T02:31:47.102Z,0
2018-09-08T02:32:47.497Z,0
2018-09-08T02:33:47.192Z,0
2018-09-08T02:34:47.141Z,0
2018-09-08T02:35:47.069Z,0
2018-09-08T02:36:47.062Z,0
2018-09-08T02:37:47.029Z,0
2018-09-08T02:38:47.442Z,0
2018-09-08T02:39:47.151Z,0
2018-09-08T02:40:47.223Z,0
2018-09-08T02:41:47.112Z,0
2018-09-08T02:42:47.052Z,0
2018-09-08T02:43:47.070Z,0
2018-09-08T02:44:47.392Z,0
2018-09-08T02:45:47.290Z,0
2018-09-08T02:46:47.104Z,0
2018-09-08T02:47:47.117Z,0
2018-09-08T02:48:47.203Z,0
2018-09-08T02:49:47.231Z,0
2018-09-08T02:50:48.441Z,0
2018-09-08T02:51:47.117Z,0
2018-09-08T02:52:47.146Z,0
2018-09-08T02:53:47.061Z,0
2018-09-08T02:54:47.125Z,0
2018-09-08T02:55:47.107Z,0
2018-09-08T02:56:47.482Z,0
2018-09-08T02:57:47.088Z,0
2018-09-08T02:58:47.121Z,0
2018-09-08T02:59:47.100Z,0
2018-09-08T03:00:47.168Z,0
2018-09-08T03:01:47.082Z,0
2018-09-08T03:02:47.428Z,0
2018-09-08T03:03:47.283Z,0
2018-09-08T03:04:47.096Z,0
2018-09-08T03:05:47.221Z,0
2018-09-08T03:06:47.221Z,0
2018-09-08T03:07:47.121Z,0
2018-09-08T03:08:47.559Z,0
2018-09-08T03:09:49.630Z,0
2018-09-08T03:10:51.306Z,0
2018-09-08T03:11:47.139Z,0
2018-09-08T03:12:47.500Z,0
2018-09-08T03:13:47.130Z,0
2018-09-08T03:14:47.587Z,0
2018-09-08T03:15:47.115Z,0
2018-09-08T03:16:47.082Z,0
2018-09-08T03:17:47.159Z,0
2018-09-08T03:18:47.528Z,0
2018-09-08T03:19:47.267Z,0
2018-09-08T03:20:47.503Z,0
2018-09-08T03:21:47.077Z,0
2018-09-08T03:22:47.137Z,0
2018-09-08T03:23:47.304Z,0
2018-09-08T03:24:47.130Z,0
2018-09-08T03:25:47.184Z,0
2018-09-08T03:26:47.556Z,0
2018-09-08T03:27:47.160Z,0
2018-09-08T03:28:47.192Z,0
2018-09-08T03:29:47.200Z,0
2018-09-08T03:30:47.344Z,0
2018-09-08T03:31:47.163Z,0
2018-09-08T03:32:47.582Z,0
2018-09-08T03:33:47.470Z,0
2018-09-08T03:34:47.167Z,0
2018-09-08T03:35:47.156Z,0
2018-09-08T03:36:47.105Z,0
2018-09-08T03:37:47.191Z,0
2018-09-08T03:38:47.620Z,0
2018-09-08T03:39:47.190Z,0
2018-09-08T03:40:47.122Z,0
2018-09-08T03:41:47.262Z,0
2018-09-08T03:42:47.101Z,0
2018-09-08T03:43:47.258Z,0
2018-09-08T03:44:47.667Z,0
2018-09-08T03:45:47.294Z,0
2018-09-08T03:46:47.232Z,0
2018-09-08T03:47:47.491Z,0
2018-09-08T03:48:47.360Z,0
2018-09-08T03:49:47.192Z,0
2018-09-08T03:50:47.679Z,0
2018-09-08T03:51:47.205Z,0
2018-09-08T03:52:47.181Z,0
2018-09-08T03:53:47.423Z,0
2018-09-08T03:54:47.264Z,0
2018-09-08T03:55:47.202Z,0
2018-09-08T03:56:47.754Z,0
2018-09-08T03:57:47.297Z,0
2018-09-08T03:58:47.298Z,0
2018-09-08T03:59:47.391Z,0
2018-09-08T04:00:47.287Z,0
2018-09-08T04:01:47.485Z,0
2018-09-08T04:02:47.609Z,0
2018-09-08T04:03:47.522Z,0
2018-09-08T04:04:47.243Z,0
2018-09-08T04:05:47.386Z,0
2018-09-08T04:06:47.235Z,0
2018-09-08T04:07:47.194Z,0
2018-09-08T04:08:48.582Z,0
2018-09-08T04:09:47.207Z,0
2018-09-08T04:10:47.250Z,0
2018-09-08T04:12:22.117Z,0
2018-09-08T04:12:47.268Z,0
2018-09-08T04:13:47.219Z,0
2018-09-08T04:14:47.698Z,0
2018-09-08T04:15:47.281Z,0
2018-09-08T04:16:47.226Z,0
2018-09-08T04:17:47.361Z,0
2018-09-08T04:18:47.307Z,0
2018-09-08T04:19:47.238Z,0
2018-09-08T04:20:47.598Z,0
2018-09-08T04:21:47.224Z,0
2018-09-08T04:22:47.465Z,0
2018-09-08T04:23:47.212Z,0
2018-09-08T04:24:47.205Z,0
2018-09-08T04:25:47.213Z,0
2018-09-08T04:26:47.523Z,4
2018-09-08T04:27:47.295Z,0
2018-09-08T04:28:47.504Z,0
2018-09-08T04:29:47.312Z,4
2018-09-08T04:30:47.803Z,0
2018-09-08T04:31:47.369Z,4
2018-09-08T04:32:47.187Z,4
2018-09-08T04:33:47.226Z,0
2018-09-08T04:34:47.347Z,4
2018-09-08T04:35:47.241Z,4
2018-09-08T04:36:47.222Z,4
2018-09-08T04:37:47.555Z,4
2018-09-08T04:38:48.118Z,4
2018-09-08T04:39:47.407Z,4
2018-09-08T04:40:47.275Z,8
2018-09-08T04:41:47.388Z,4
2018-09-08T04:42:47.225Z,8
2018-09-08T04:43:47.307Z,4
2018-09-08T04:44:49.587Z,8
2018-09-08T04:45:47.253Z,4
2018-09-08T04:46:47.482Z,8
2018-09-08T04:47:47.276Z,8
2018-09-08T04:48:47.364Z,8
2018-09-08T04:49:47.546Z,8
2018-09-08T04:50:47.579Z,12
2018-09-08T04:51:47.300Z,12
2018-09-08T04:52:47.439Z,12
2018-09-08T04:53:47.257Z,16
2018-09-08T04:54:47.239Z,12
2018-09-08T04:55:47.258Z,16
2018-09-08T04:56:47.623Z,16
2018-09-08T04:57:47.226Z,16
2018-09-08T04:58:47.462Z,20
2018-09-08T04:59:47.307Z,20
2018-09-08T05:00:47.246Z,20
2018-09-08T05:01:47.283Z,24
2018-09-08T05:02:47.660Z,24
2018-09-08T05:03:47.547Z,28
2018-09-08T05:04:47.274Z,32
2018-09-08T05:05:47.510Z,36
2018-09-08T05:06:47.360Z,36
2018-09-08T05:07:47.299Z,40
2018-09-08T05:08:47.307Z,40
2018-09-08T05:09:47.242Z,44
2018-09-08T05:10:47.243Z,44
2018-09-08T05:11:47.567Z,44
2018-09-08T05:12:47.357Z,48
2018-09-08T05:13:47.666Z,48
2018-09-08T05:14:47.268Z,52
2018-09-08T05:15:47.381Z,56
2018-09-08T05:16:47.308Z,60
2018-09-08T05:17:47.391Z,60
2018-09-08T05:18:47.619Z,60
2018-09-08T05:19:47.823Z,64
2018-09-08T05:20:47.275Z,68
2018-09-08T05:21:47.306Z,72
2018-09-08T05:22:47.908Z,80
2018-09-08T05:23:47.308Z,84
2018-09-08T05:24:47.342Z,92
2018-09-08T05:25:47.708Z,104
2018-09-08T05:26:47.304Z,120
2018-09-08T05:27:47.312Z,128
2018-09-08T05:28:48.355Z,136
2018-09-08T05:29:47.403Z,144
2018-09-08T05:30:47.343Z,156
2018-09-08T05:31:47.643Z,164
2018-09-08T05:32:47.344Z,176
2018-09-08T05:33:47.316Z,192
2018-09-08T05:34:47.306Z,200
2018-09-08T05:35:47.439Z,204
2018-09-08T05:36:47.375Z,204
2018-09-08T05:37:47.719Z,204
2018-09-08T05:38:47.317Z,208
2018-09-08T05:39:47.488Z,204
2018-09-08T05:40:47.364Z,204
2018-09-08T05:41:47.304Z,192
2018-09-08T05:42:47.344Z,200
2018-09-08T05:43:48.846Z,224
2018-09-08T05:44:47.354Z,244
2018-09-08T05:45:47.359Z,224
2018-09-08T05:46:47.363Z,268
2018-09-08T05:47:47.347Z,264
2018-09-08T05:48:47.515Z,228
2018-09-08T05:49:47.761Z,232
2018-09-08T05:50:47.319Z,220
2018-09-08T05:51:47.395Z,208
2018-09-08T05:52:47.335Z,208
2018-09-08T05:53:47.341Z,212
2018-09-08T05:54:47.382Z,232
2018-09-08T05:55:47.696Z,244
2018-09-08T05:56:47.399Z,256
2018-09-08T05:57:47.334Z,272
2018-09-08T05:58:47.343Z,284
2018-09-08T05:59:47.352Z,304
2018-09-08T06:00:47.355Z,312
2018-09-08T06:01:47.735Z,316
2018-09-08T06:02:47.342Z,324
2018-09-08T06:03:47.340Z,324
2018-09-08T06:04:47.389Z,308
2018-09-08T06:05:47.372Z,308
2018-09-08T06:06:47.432Z,296
2018-09-08T06:07:47.777Z,288
2018-09-08T06:08:47.660Z,296
2018-09-08T06:09:47.362Z,332
2018-09-08T06:10:47.691Z,340
2018-09-08T06:11:47.429Z,336
2018-09-08T06:12:47.502Z,368
2018-09-08T06:13:47.818Z,392
2018-09-08T06:14:47.413Z,420
2018-09-08T06:15:47.383Z,432
2018-09-08T06:16:47.353Z,440
2018-09-08T06:17:47.405Z,464
2018-09-08T06:18:47.681Z,388
2018-09-08T06:19:47.869Z,364
2018-09-08T06:20:47.496Z,280
2018-09-08T06:21:47.353Z,296
2018-09-08T06:22:47.499Z,344
2018-09-08T06:23:47.376Z,360
2018-09-08T06:24:47.426Z,380
2018-09-08T06:25:47.794Z,328
2018-09-08T06:26:47.388Z,288
2018-09-08T06:27:47.642Z,300
2018-09-08T06:28:47.563Z,344
2018-09-08T06:29:47.511Z,808
2018-09-08T06:30:47.493Z,912
2018-09-08T06:31:47.939Z,944
2018-09-08T06:32:47.389Z,980
2018-09-08T06:33:47.828Z,1064
2018-09-08T06:34:47.409Z,1132
2018-09-08T06:35:47.683Z,1168
2018-09-08T06:36:47.530Z,880
2018-09-08T06:37:51.983Z,668
2018-09-08T06:38:52.195Z,1088
2018-09-08T06:44:05.077Z,1512
2018-09-08T06:44:27.379Z,1524
2018-09-08T06:45:27.361Z,1592
2018-09-08T06:46:27.482Z,1668
2018-09-08T06:47:27.294Z,1740
2018-09-08T06:48:27.543Z,1820
2018-09-08T06:49:27.676Z,1880
2018-09-08T06:50:27.512Z,1964
2018-09-08T06:51:27.324Z,2064
2018-09-08T06:52:27.400Z,2144
2018-09-08T06:53:27.366Z,2252
2018-09-08T06:54:27.452Z,2372
2018-09-08T06:55:27.715Z,2436
2018-09-08T06:56:27.515Z,2528
2018-09-08T06:57:27.348Z,2580
2018-09-08T06:58:27.338Z,2632
2018-09-08T06:59:27.338Z,2704
2018-09-08T07:00:27.383Z,2768
2018-09-08T07:01:27.865Z,2828
2018-09-08T07:02:27.600Z,2764
2018-09-08T07:03:27.885Z,2924
2018-09-08T07:04:27.608Z,2788
2018-09-08T07:05:27.332Z,2408
2018-09-08T07:06:27.363Z,580
2018-09-08T07:07:27.795Z,472
2018-09-08T07:08:27.499Z,476
2018-09-08T07:09:27.337Z,480
2018-09-08T07:10:27.337Z,744
2018-09-08T07:11:27.336Z,2464
2018-09-08T07:12:27.348Z,744
2018-09-08T07:13:28.724Z,3188
2018-09-08T07:14:27.359Z,3236
2018-09-08T07:15:27.405Z,3316
2018-09-08T07:16:27.480Z,3244
2018-09-08T07:17:27.392Z,3604
2018-09-08T07:18:27.359Z,3656
2018-09-08T07:19:27.878Z,3728
2018-09-08T07:20:27.373Z,3664
2018-09-08T07:21:27.409Z,3756
2018-09-08T07:22:27.445Z,3712
2018-09-08T07:23:27.357Z,3744
2018-09-08T07:24:27.457Z,3820
2018-09-08T07:25:27.716Z,3964
2018-09-08T07:26:27.440Z,4012
2018-09-08T07:27:27.446Z,4132
2018-09-08T07:28:27.389Z,4092
2018-09-08T07:29:27.424Z,3984
2018-09-08T07:30:27.410Z,4008
2018-09-08T07:31:27.815Z,1120
2018-09-08T07:32:27.374Z,3136
2018-09-08T07:33:27.552Z,4240
2018-09-08T07:34:27.486Z,4316
2018-09-08T07:35:27.579Z,4128
2018-09-08T07:36:27.642Z,492
2018-09-08T07:37:27.927Z,412
2018-09-08T07:38:27.486Z,416
2018-09-08T07:39:27.387Z,3928
2018-09-08T07:40:27.430Z,4004
2018-09-08T07:41:27.786Z,3644
2018-09-08T07:42:27.436Z,1548
2018-09-08T07:43:28.112Z,4076
2018-09-08T07:44:27.420Z,1504
2018-09-08T07:45:27.377Z,4000
2018-09-08T07:46:27.404Z,4004
2018-09-08T07:47:27.578Z,3752
2018-09-08T07:48:27.920Z,4004
2018-09-08T07:53:45.232Z,3888
2018-09-08T07:54:06.103Z,812
2018-09-08T07:55:06.199Z,736
2018-09-08T07:56:05.896Z,3352
2018-09-08T07:57:06.104Z,3212
2018-09-08T07:58:05.945Z,3320
2018-09-08T07:59:05.867Z,3316
2018-09-08T08:00:06.055Z,3076
2018-09-08T08:01:06.250Z,696
2018-09-08T08:02:05.893Z,1312
2018-09-08T08:03:05.843Z,1028
2018-09-08T08:04:05.847Z,2340
2018-09-08T08:05:05.858Z,764
2018-09-08T08:06:05.850Z,2928
2018-09-08T08:07:12.821Z,424
2018-09-08T08:08:06.000Z,444
2018-09-08T08:09:05.914Z,388
2018-09-08T08:10:06.462Z,396
2018-09-08T08:11:09.642Z,2492
2018-09-08T08:12:08.184Z,748
2018-09-08T08:13:06.565Z,388
2018-09-08T08:14:05.943Z,336
2018-09-08T08:15:05.911Z,324
2018-09-08T08:16:05.882Z,316
2018-09-08T08:17:05.870Z,340
2018-09-08T08:18:05.860Z,320
2018-09-08T08:19:07.043Z,344
2018-09-08T08:20:05.921Z,1100
2018-09-08T08:21:05.899Z,1020
2018-09-08T08:22:05.909Z,784
2018-09-08T08:23:05.903Z,1132
2018-09-08T08:24:05.909Z,1816
2018-09-08T08:25:07.314Z,1780
2018-09-08T08:26:05.913Z,1740
2018-09-08T08:27:05.911Z,1764
2018-09-08T08:28:05.858Z,1744
2018-09-08T08:29:06.155Z,1728
2018-09-08T08:30:05.892Z,1816
2018-09-08T08:31:06.230Z,1760
2018-09-08T08:32:05.924Z,1296
2018-09-08T08:33:05.998Z,1708
2018-09-08T08:34:05.900Z,1632
2018-09-08T08:35:05.911Z,1612
2018-09-08T08:36:05.915Z,1616
2018-09-08T08:37:06.426Z,1640
2018-09-08T08:38:05.948Z,1636
2018-09-08T08:39:05.896Z,1624
2018-09-08T08:40:05.884Z,1560
2018-09-08T08:41:05.909Z,1476
2018-09-08T08:42:05.883Z,1480
2018-09-08T08:43:06.200Z,1464
2018-09-08T08:44:05.936Z,1440
2018-09-08T08:45:05.917Z,1464
2018-09-08T08:46:06.013Z,1500
2018-09-08T08:47:05.922Z,1520
2018-09-08T08:48:05.920Z,1520
2018-09-08T08:49:06.242Z,1548
2018-09-08T08:50:06.022Z,1516
2018-09-08T08:51:06.167Z,460
2018-09-08T08:52:05.949Z,404
2018-09-08T08:53:05.968Z,396
2018-09-08T08:54:05.972Z,792
2018-09-08T08:55:06.297Z,1460
2018-09-08T08:56:05.948Z,1448
2018-09-08T08:57:06.201Z,968
2018-09-08T08:58:05.972Z,372
2018-09-08T08:59:06.047Z,332
2018-09-08T09:00:06.867Z,332
2018-09-08T09:05:23.745Z,868
2018-09-08T09:05:36.046Z,432
2018-09-08T09:06:36.014Z,1384
2018-09-08T09:07:36.410Z,1404
2018-09-08T09:08:36.516Z,1420
2018-09-08T09:09:36.502Z,1420
2018-09-08T09:10:36.147Z,1420
2018-09-08T09:11:36.378Z,1416
2018-09-08T09:12:36.856Z,1408
2018-09-08T09:13:36.582Z,1404
2018-09-08T09:14:36.612Z,1420
2018-09-08T09:15:36.856Z,1404
2018-09-08T09:16:36.365Z,1412
2018-09-08T09:17:36.204Z,1404
2018-09-08T09:18:36.780Z,1416
2018-09-08T09:19:36.072Z,1420
2018-09-08T09:20:36.304Z,1404
2018-09-08T09:21:37.783Z,1448
2018-09-08T09:22:36.198Z,1448
2018-09-08T09:23:36.473Z,1448
2018-09-08T09:24:36.767Z,1428
2018-09-08T09:25:36.596Z,1440
2018-09-08T09:26:36.069Z,1424
2018-09-08T09:27:36.590Z,1428
2018-09-08T09:28:36.118Z,1428
2018-09-08T09:29:36.109Z,1404
2018-09-08T09:30:36.562Z,1404
2018-09-08T09:31:36.412Z,1396
2018-09-08T09:32:36.238Z,1408
2018-09-08T09:33:37.184Z,1400
2018-09-08T09:34:36.634Z,1404
2018-09-08T09:35:36.916Z,1388
2018-09-08T09:36:36.112Z,1404
2018-09-08T09:37:36.575Z,1416
2018-09-08T09:38:36.530Z,1428
2018-09-08T09:39:37.337Z,1436
2018-09-08T09:40:36.096Z,1408
2018-09-08T09:41:36.219Z,1396
2018-09-08T09:42:36.085Z,1416
2018-09-08T09:43:36.145Z,1424
2018-09-08T09:44:36.517Z,600
2018-09-08T09:45:37.352Z,368
2018-09-08T09:46:36.134Z,384
2018-09-08T09:47:36.802Z,408
2018-09-08T09:48:38.947Z,1156
2018-09-08T09:49:36.937Z,1396
2018-09-08T09:50:37.688Z,1408
2018-09-08T09:51:38.330Z,1416
2018-09-08T09:56:08.389Z,356
2018-09-08T09:57:10.411Z,1304
2018-09-08T09:58:08.306Z,1468
2018-09-08T09:59:08.301Z,1448
2018-09-08T10:00:08.409Z,1440
2018-09-08T10:01:08.483Z,1492
2018-09-08T10:02:08.355Z,432
2018-09-08T10:03:08.607Z,1452
2018-09-08T10:04:08.243Z,1368
2018-09-08T10:05:08.411Z,1404
2018-09-08T10:06:08.456Z,1400
2018-09-08T10:07:08.332Z,1408
2018-09-08T10:08:08.301Z,1412
2018-09-08T10:09:14.038Z,1408
2018-09-08T10:10:08.352Z,1416
2018-09-08T10:11:08.309Z,1416
2018-09-08T10:12:08.527Z,1428
2018-09-08T10:13:08.265Z,1404
2018-09-08T10:14:09.566Z,1408
2018-09-08T10:15:08.640Z,1380
2018-09-08T10:16:08.287Z,1388
2018-09-08T10:17:08.293Z,1248
2018-09-08T10:18:08.468Z,1256
2018-09-08T10:19:08.509Z,1264
2018-09-08T10:20:08.441Z,1240
2018-09-08T10:21:08.581Z,1400
2018-09-08T10:22:08.313Z,1396
2018-09-08T10:23:08.520Z,1260
2018-09-08T10:24:08.437Z,1356
2018-09-08T10:25:08.371Z,1272
2018-09-08T10:26:08.544Z,1244
2018-09-08T10:27:08.921Z,1244
2018-09-08T10:28:08.347Z,1372
2018-09-08T10:29:08.339Z,1224
2018-09-08T10:30:08.407Z,1348
2018-09-08T10:31:08.355Z,1360
2018-09-08T10:32:08.804Z,1348
2018-09-08T10:33:08.657Z,1400
2018-09-08T10:34:08.321Z,1400
2018-09-08T10:35:08.376Z,1388
2018-09-08T10:36:08.309Z,1376
2018-09-08T10:37:08.391Z,1372
2018-09-08T10:38:08.322Z,1360
2018-09-08T10:39:08.707Z,1368
2018-09-08T10:40:08.375Z,1376
2018-09-08T10:41:08.335Z,1404
2018-09-08T10:42:08.386Z,1396
2018-09-08T10:43:08.330Z,1396
2018-09-08T10:44:08.974Z,1388
2018-09-08T10:45:08.748Z,1384
2018-09-08T10:46:08.382Z,1368
2018-09-08T10:47:08.315Z,1364
2018-09-08T10:48:08.325Z,1372
2018-09-08T10:49:08.382Z,1380
2018-09-08T10:50:08.441Z,1376
2018-09-08T10:51:08.884Z,1364
2018-09-08T10:52:08.404Z,1360
2018-09-08T10:53:08.933Z,1052
2018-09-08T10:54:08.358Z,1328
2018-09-08T10:55:08.392Z,1380
2018-09-08T10:56:08.366Z,1372
2018-09-08T10:57:08.727Z,1356
2018-09-08T10:58:08.326Z,1276
2018-09-08T10:59:08.484Z,1340
2018-09-08T11:00:08.442Z,1304
2018-09-08T11:01:08.373Z,1332
2018-09-08T11:02:08.645Z,1372
2018-09-08T11:03:08.767Z,1384
2018-09-08T11:04:08.385Z,1388
2018-09-08T11:05:08.390Z,1384
2018-09-08T11:06:08.391Z,1384
2018-09-08T11:07:08.401Z,1380
2018-09-08T11:08:08.397Z,1368
2018-09-08T11:09:08.797Z,1348
2018-09-08T11:10:08.423Z,1348
2018-09-08T11:11:08.392Z,1348
2018-09-08T11:12:08.397Z,1352
2018-09-08T11:13:08.347Z,1340
2018-09-08T11:14:08.382Z,1332
2018-09-08T11:15:08.827Z,1344
2018-09-08T11:16:08.439Z,1348
2018-09-08T11:17:08.435Z,1332
2018-09-08T11:18:08.417Z,1356
2018-09-08T11:19:08.414Z,1356
2018-09-08T11:20:08.418Z,1356
2018-09-08T11:21:08.769Z,1348
2018-09-08T11:22:08.463Z,1340
2018-09-08T11:23:08.753Z,1340
2018-09-08T11:24:08.736Z,1336
2018-09-08T11:25:08.745Z,1324
2018-09-08T11:26:08.734Z,1320
2018-09-08T11:27:08.919Z,1308
2018-09-08T11:28:08.477Z,1308
2018-09-08T11:29:08.419Z,1316
2018-09-08T11:30:08.479Z,1328
2018-09-08T11:31:08.491Z,1336
2018-09-08T11:32:08.532Z,1328
2018-09-08T11:33:08.743Z,1328
2018-09-08T11:34:08.416Z,1328
2018-09-08T11:35:08.419Z,1344
2018-09-08T11:36:08.434Z,1340
2018-09-08T11:37:08.431Z,1332
2018-09-08T11:38:08.648Z,1320
2018-09-08T11:39:11.956Z,1324
2018-09-08T11:40:08.481Z,1320
2018-09-08T11:41:08.716Z,1308
2018-09-08T11:42:08.774Z,1316
2018-09-08T11:43:08.819Z,1312
2018-09-08T11:44:09.030Z,1320
2018-09-08T11:45:09.336Z,1320
2018-09-08T11:46:08.763Z,1316
2018-09-08T11:47:08.470Z,1308
2018-09-08T11:48:08.476Z,1304
2018-09-08T11:49:08.418Z,1304
2018-09-08T11:50:08.582Z,1316
2018-09-08T11:51:08.739Z,1320
2018-09-08T11:52:08.458Z,1324
2018-09-08T11:53:08.812Z,1324
2018-09-08T11:54:08.485Z,1316
2018-09-08T11:55:08.485Z,1308
2018-09-08T11:56:08.457Z,1304
2018-09-08T11:57:08.751Z,1292
2018-09-08T11:58:08.469Z,1300
2018-09-08T11:59:08.531Z,1292
2018-09-08T12:00:08.533Z,1300
2018-09-08T12:01:08.496Z,1284
2018-09-08T12:02:08.693Z,1276
2018-09-08T12:03:09.108Z,1292
2018-09-08T12:04:08.518Z,1296
2018-09-08T12:05:08.441Z,1300
2018-09-08T12:06:08.453Z,1292
2018-09-08T12:07:08.495Z,1288
2018-09-08T12:08:08.704Z,1296
2018-09-08T12:09:08.888Z,1300
2018-09-08T12:10:08.552Z,1304
2018-09-08T12:11:08.478Z,1292
2018-09-08T12:12:08.536Z,1276
2018-09-08T12:13:08.506Z,1260
2018-09-08T12:14:08.601Z,1264
2018-09-08T12:15:08.849Z,1260
2018-09-08T12:16:08.518Z,1248
2018-09-08T12:17:08.820Z,1240
2018-09-08T12:18:08.497Z,1264
2018-09-08T12:19:08.736Z,1264
2018-09-08T12:20:08.469Z,1252
2018-09-08T12:21:09.022Z,1256
2018-09-08T12:22:08.671Z,1256
2018-09-08T12:23:08.538Z,1260
2018-09-08T12:24:08.526Z,1252
2018-09-08T12:25:08.690Z,1252
2018-09-08T12:26:08.539Z,1248
2018-09-08T12:27:08.869Z,1236
2018-09-08T12:28:08.561Z,1240
2018-09-08T12:29:08.531Z,1236
2018-09-08T12:30:08.670Z,1240
2018-09-08T12:31:08.753Z,1240
2018-09-08T12:32:08.548Z,1240
2018-09-08T12:33:08.953Z,1236
2018-09-08T12:34:08.560Z,1232
2018-09-08T12:35:08.564Z,1236
2018-09-08T12:36:08.578Z,1240
2018-09-08T12:37:08.719Z,1240
2018-09-08T12:38:08.586Z,1240
2018-09-08T12:39:09.052Z,1240
2018-09-08T12:40:08.503Z,1232
2018-09-08T12:41:08.570Z,1228
2018-09-08T12:42:08.546Z,1228
2018-09-08T12:43:08.548Z,1220
2018-09-08T12:44:08.602Z,1140
2018-09-08T12:45:08.944Z,1140
2018-09-08T12:46:08.715Z,1144
2018-09-08T12:47:08.588Z,1104
2018-09-08T12:48:08.536Z,1100
2018-09-08T12:49:08.631Z,1064
2018-09-08T12:50:08.708Z,1032
2018-09-08T12:51:09.152Z,1040
2018-09-08T12:52:08.912Z,1112
2018-09-08T12:53:08.910Z,1108
2018-09-08T12:54:08.868Z,1108
2018-09-08T12:55:25.877Z,1112
2018-09-08T12:56:26.079Z,1096
2018-09-08T12:57:25.722Z,1088
2018-09-08T12:58:25.754Z,1092
2018-09-08T12:59:25.829Z,1092
2018-09-08T13:00:25.642Z,1108
2018-09-08T13:01:25.679Z,1088
2018-09-08T13:02:25.944Z,1092
2018-09-08T13:03:25.678Z,1088
2018-09-08T13:04:25.689Z,1084
2018-09-08T13:05:25.678Z,1080
2018-09-08T13:06:25.767Z,1076
2018-09-08T13:07:25.691Z,1068
2018-09-08T13:08:26.120Z,1088
2018-09-08T13:09:25.733Z,1060
2018-09-08T13:10:25.830Z,1060
2018-09-08T13:11:25.714Z,1060
2018-09-08T13:12:25.677Z,1060
2018-09-08T13:13:25.699Z,1056
2018-09-08T13:14:27.495Z,1052
2018-09-08T13:15:26.043Z,1052
2018-09-08T13:16:25.715Z,1044
2018-09-08T13:17:25.788Z,1048
2018-09-08T13:18:25.782Z,1048
2018-09-08T13:19:25.768Z,1056
2018-09-08T13:20:26.171Z,1056
2018-09-08T13:21:25.716Z,1052
2018-09-08T13:22:25.739Z,1048
2018-09-08T13:23:26.028Z,1040
2018-09-08T13:24:26.038Z,1068
2018-09-08T13:25:25.870Z,1036
2018-09-08T13:26:26.289Z,1036
2018-09-08T13:27:25.850Z,1036
2018-09-08T13:28:25.818Z,1032
2018-09-08T13:29:25.701Z,1032
2018-09-08T13:30:25.846Z,1028
2018-09-08T13:31:26.268Z,1028
2018-09-08T13:32:26.141Z,1020
2018-09-08T13:33:25.845Z,1016
2018-09-08T13:34:25.866Z,1004
2018-09-08T13:35:26.440Z,1012
2018-09-08T13:36:26.046Z,1012
2018-09-08T13:37:25.845Z,1012
2018-09-08T13:38:28.215Z,1004
2018-09-08T13:39:25.860Z,996
2018-09-08T13:40:25.829Z,996
2018-09-08T13:41:25.808Z,992
2018-09-08T13:42:25.773Z,992
2018-09-08T13:43:25.805Z,992
2018-09-08T13:44:26.065Z,996
2018-09-08T13:45:25.752Z,992
2018-09-08T13:46:25.757Z,988
2018-09-08T13:47:25.856Z,984
2018-09-08T13:48:26.155Z,984
2018-09-08T13:49:25.716Z,988
2018-09-08T13:50:26.024Z,988
2018-09-08T13:51:25.723Z,976
2018-09-08T13:52:25.669Z,976
2018-09-08T13:53:25.707Z,940
2018-09-08T13:54:25.719Z,952
2018-09-08T13:55:25.710Z,948
2018-09-08T13:56:26.041Z,952
2018-09-08T13:57:25.778Z,952
2018-09-08T13:58:25.769Z,944
2018-09-08T13:59:25.797Z,936
2018-09-08T14:00:25.862Z,932
2018-09-08T14:01:25.844Z,932
2018-09-08T14:02:26.125Z,928
2018-09-08T14:03:25.776Z,928
2018-09-08T14:04:25.848Z,884
2018-09-08T14:05:25.843Z,932
2018-09-08T14:06:25.791Z,928
2018-09-08T14:07:25.812Z,932
2018-09-08T14:08:27.275Z,928
2018-09-08T14:09:25.822Z,916
2018-09-08T14:10:25.973Z,912
2018-09-08T14:11:25.752Z,908
2018-09-08T14:12:25.836Z,904
2018-09-08T14:13:25.816Z,900
2018-09-08T14:14:26.102Z,892
2018-09-08T14:15:25.984Z,888
2018-09-08T14:16:25.809Z,888
2018-09-08T14:17:25.836Z,888
2018-09-08T14:18:26.473Z,884
2018-09-08T14:19:26.132Z,884
2018-09-08T14:20:26.118Z,876
2018-09-08T14:21:26.200Z,872
2018-09-08T14:22:26.132Z,876
2018-09-08T14:23:25.935Z,872
2018-09-08T14:24:25.925Z,864
2018-09-08T14:25:27.675Z,860
2018-09-08T14:26:25.866Z,856
2018-09-08T14:27:25.953Z,856
2018-09-08T14:28:25.912Z,852
2018-09-08T14:29:25.915Z,848
2018-09-08T14:30:25.920Z,844
2018-09-08T14:31:26.202Z,840